sensor_id;sensor_type;location;lat;lon;timestamp;P1;durP1;ratioP1;P2;durP2;ratioP2
73814;SDS011;62145;55.648;37.602;2023-04-03T00:01:04;12.80;;;7.80;;
73814;SDS011;62145;55.648;37.602;2023-04-03T00:03:31;14.25;;;7.65;;
73814;SDS011;62145;55.648;37.602;2023-04-03T00:05:57;17.50;;;8.20;;
73814;SDS011;62145;55.648;37.602;2023-04-03T00:08:23;13.05;;;7.50;;
73814;SDS011;62145;55.648;37.602;2023-04-03T00:10:49;15.30;;;7.67;;
73814;SDS011;62145;55.648;37.602;2023-04-03T00:13:15;15.20;;;7.13;;
73814;SDS011;62145;55.648;37.602;2023-04-03T00:15:41;15.10;;;8.13;;
73814;SDS011;62145;55.648;37.602;2023-04-03T00:18:07;15.18;;;7.53;;
73814;SDS011;62145;55.648;37.602;2023-04-03T00:20:33;15.75;;;7.35;;
73814;SDS011;62145;55.648;37.602;2023-04-03T00:22:59;16.87;;;8.47;;
73814;SDS011;62145;55.648;37.602;2023-04-03T00:25:25;13.32;;;7.18;;
73814;SDS011;62145;55.648;37.602;2023-04-03T00:27:51;14.77;;;7.50;;
73814;SDS011;62145;55.648;37.602;2023-04-03T00:30:17;17.02;;;7.70;;
73814;SDS011;62145;55.648;37.602;2023-04-03T00:32:44;14.43;;;7.72;;
73814;SDS011;62145;55.648;37.602;2023-04-03T00:35:13;14.82;;;7.15;;
73814;SDS011;62145;55.648;37.602;2023-04-03T00:37:41;14.03;;;7.23;;
73814;SDS011;62145;55.648;37.602;2023-04-03T00:40:08;17.08;;;7.63;;
73814;SDS011;62145;55.648;37.602;2023-04-03T00:42:36;17.17;;;7.68;;
73814;SDS011;62145;55.648;37.602;2023-04-03T00:47:29;14.68;;;8.05;;
73814;SDS011;62145;55.648;37.602;2023-04-03T00:49:56;12.90;;;7.27;;
73814;SDS011;62145;55.648;37.602;2023-04-03T00:52:23;13.50;;;6.97;;
73814;SDS011;62145;55.648;37.602;2023-04-03T00:54:51;14.80;;;6.97;;
73814;SDS011;62145;55.648;37.602;2023-04-03T00:57:20;15.57;;;7.10;;
73814;SDS011;62145;55.648;37.602;2023-04-03T00:59:48;13.00;;;7.18;;
73814;SDS011;62145;55.648;37.602;2023-04-03T01:02:17;15.63;;;7.23;;
73814;SDS011;62145;55.648;37.602;2023-04-03T01:04:44;14.35;;;7.25;;
73814;SDS011;62145;55.648;37.602;2023-04-03T01:07:11;13.77;;;7.60;;
73814;SDS011;62145;55.648;37.602;2023-04-03T01:09:42;14.27;;;7.50;;
73814;SDS011;62145;55.648;37.602;2023-04-03T01:12:18;14.27;;;7.30;;
73814;SDS011;62145;55.648;37.602;2023-04-03T01:14:46;12.87;;;6.97;;
73814;SDS011;62145;55.648;37.602;2023-04-03T01:25:35;13.82;;;7.10;;
73814;SDS011;62145;55.648;37.602;2023-04-03T01:28:03;13.70;;;6.87;;
73814;SDS011;62145;55.648;37.602;2023-04-03T01:30:37;13.15;;;7.10;;
73814;SDS011;62145;55.648;37.602;2023-04-03T01:33:13;13.38;;;7.05;;
73814;SDS011;62145;55.648;37.602;2023-04-03T01:35:39;12.75;;;6.88;;
73814;SDS011;62145;55.648;37.602;2023-04-03T01:38:05;12.47;;;6.43;;
73814;SDS011;62145;55.648;37.602;2023-04-03T01:40:31;13.75;;;7.47;;
73814;SDS011;62145;55.648;37.602;2023-04-03T01:42:57;15.32;;;7.65;;
73814;SDS011;62145;55.648;37.602;2023-04-03T01:45:23;14.60;;;6.90;;
73814;SDS011;62145;55.648;37.602;2023-04-03T01:47:49;14.82;;;6.78;;
73814;SDS011;62145;55.648;37.602;2023-04-03T01:50:15;16.52;;;7.38;;
73814;SDS011;62145;55.648;37.602;2023-04-03T01:52:41;12.60;;;6.82;;
73814;SDS011;62145;55.648;37.602;2023-04-03T01:55:07;14.23;;;6.97;;
73814;SDS011;62145;55.648;37.602;2023-04-03T01:57:33;15.50;;;6.97;;
73814;SDS011;62145;55.648;37.602;2023-04-03T01:59:59;13.83;;;7.77;;
73814;SDS011;62145;55.648;37.602;2023-04-03T02:02:24;14.20;;;7.30;;
73814;SDS011;62145;55.648;37.602;2023-04-03T02:04:51;21.88;;;7.72;;
73814;SDS011;62145;55.648;37.602;2023-04-03T02:07:17;16.33;;;7.47;;
73814;SDS011;62145;55.648;37.602;2023-04-03T02:09:42;14.75;;;7.13;;
73814;SDS011;62145;55.648;37.602;2023-04-03T02:12:08;14.47;;;7.07;;
73814;SDS011;62145;55.648;37.602;2023-04-03T02:14:34;15.25;;;6.93;;
73814;SDS011;62145;55.648;37.602;2023-04-03T02:17:00;16.35;;;7.78;;
73814;SDS011;62145;55.648;37.602;2023-04-03T02:19:30;13.40;;;7.00;;
73814;SDS011;62145;55.648;37.602;2023-04-03T02:21:56;13.98;;;7.35;;
73814;SDS011;62145;55.648;37.602;2023-04-03T02:24:22;15.80;;;7.60;;
73814;SDS011;62145;55.648;37.602;2023-04-03T02:26:48;14.83;;;7.93;;
73814;SDS011;62145;55.648;37.602;2023-04-03T02:29:13;18.90;;;8.23;;
73814;SDS011;62145;55.648;37.602;2023-04-03T02:31:39;18.13;;;8.20;;
73814;SDS011;62145;55.648;37.602;2023-04-03T02:34:05;17.95;;;7.72;;
73814;SDS011;62145;55.648;37.602;2023-04-03T02:36:33;18.95;;;7.93;;
73814;SDS011;62145;55.648;37.602;2023-04-03T02:39:03;14.05;;;7.72;;
73814;SDS011;62145;55.648;37.602;2023-04-03T02:41:29;18.25;;;8.52;;
73814;SDS011;62145;55.648;37.602;2023-04-03T02:44:02;19.33;;;8.48;;
73814;SDS011;62145;55.648;37.602;2023-04-03T02:46:28;17.45;;;7.97;;
73814;SDS011;62145;55.648;37.602;2023-04-03T02:48:55;21.00;;;8.25;;
73814;SDS011;62145;55.648;37.602;2023-04-03T02:51:21;18.48;;;9.00;;
73814;SDS011;62145;55.648;37.602;2023-04-03T02:53:48;20.17;;;9.07;;
73814;SDS011;62145;55.648;37.602;2023-04-03T02:56:18;21.50;;;10.38;;
73814;SDS011;62145;55.648;37.602;2023-04-03T02:58:45;23.08;;;10.60;;
73814;SDS011;62145;55.648;37.602;2023-04-03T03:01:11;23.08;;;10.05;;
73814;SDS011;62145;55.648;37.602;2023-04-03T03:03:37;25.07;;;11.47;;
73814;SDS011;62145;55.648;37.602;2023-04-03T03:08:29;26.38;;;10.63;;
73814;SDS011;62145;55.648;37.602;2023-04-03T03:10:55;23.60;;;10.77;;
73814;SDS011;62145;55.648;37.602;2023-04-03T03:13:21;22.67;;;10.57;;
73814;SDS011;62145;55.648;37.602;2023-04-03T03:15:46;24.50;;;10.53;;
73814;SDS011;62145;55.648;37.602;2023-04-03T03:18:13;21.63;;;10.07;;
73814;SDS011;62145;55.648;37.602;2023-04-03T03:20:39;26.10;;;10.73;;
73814;SDS011;62145;55.648;37.602;2023-04-03T03:23:05;22.47;;;9.73;;
73814;SDS011;62145;55.648;37.602;2023-04-03T03:25:31;24.40;;;10.98;;
73814;SDS011;62145;55.648;37.602;2023-04-03T03:27:57;22.33;;;9.93;;
73814;SDS011;62145;55.648;37.602;2023-04-03T03:30:23;21.30;;;10.00;;
73814;SDS011;62145;55.648;37.602;2023-04-03T03:32:48;27.55;;;11.02;;
73814;SDS011;62145;55.648;37.602;2023-04-03T03:35:14;23.07;;;10.13;;
73814;SDS011;62145;55.648;37.602;2023-04-03T03:37:40;23.50;;;11.25;;
73814;SDS011;62145;55.648;37.602;2023-04-03T03:40:06;19.17;;;10.35;;
73814;SDS011;62145;55.648;37.602;2023-04-03T03:42:33;23.58;;;10.75;;
73814;SDS011;62145;55.648;37.602;2023-04-03T03:45:00;26.20;;;11.37;;
73814;SDS011;62145;55.648;37.602;2023-04-03T03:47:26;28.17;;;11.15;;
73814;SDS011;62145;55.648;37.602;2023-04-03T03:49:53;23.88;;;11.45;;
73814;SDS011;62145;55.648;37.602;2023-04-03T03:52:19;22.60;;;10.70;;
73814;SDS011;62145;55.648;37.602;2023-04-03T03:54:44;24.25;;;11.35;;
73814;SDS011;62145;55.648;37.602;2023-04-03T03:57:11;24.60;;;10.52;;
73814;SDS011;62145;55.648;37.602;2023-04-03T03:59:36;23.67;;;10.60;;
73814;SDS011;62145;55.648;37.602;2023-04-03T04:02:03;24.02;;;11.32;;
73814;SDS011;62145;55.648;37.602;2023-04-03T04:04:29;23.70;;;10.50;;
73814;SDS011;62145;55.648;37.602;2023-04-03T04:06:55;24.73;;;10.50;;
73814;SDS011;62145;55.648;37.602;2023-04-03T04:09:21;22.45;;;9.93;;
73814;SDS011;62145;55.648;37.602;2023-04-03T04:11:46;20.37;;;10.50;;
73814;SDS011;62145;55.648;37.602;2023-04-03T04:14:14;24.45;;;10.85;;
73814;SDS011;62145;55.648;37.602;2023-04-03T04:16:41;25.08;;;10.95;;
73814;SDS011;62145;55.648;37.602;2023-04-03T04:19:13;25.13;;;11.13;;
73814;SDS011;62145;55.648;37.602;2023-04-03T04:21:39;22.33;;;10.90;;
73814;SDS011;62145;55.648;37.602;2023-04-03T04:24:07;21.40;;;10.82;;
73814;SDS011;62145;55.648;37.602;2023-04-03T04:26:34;26.92;;;12.05;;
73814;SDS011;62145;55.648;37.602;2023-04-03T04:29:01;26.75;;;11.23;;
73814;SDS011;62145;55.648;37.602;2023-04-03T04:31:30;22.35;;;11.45;;
73814;SDS011;62145;55.648;37.602;2023-04-03T04:33:55;24.87;;;12.00;;
73814;SDS011;62145;55.648;37.602;2023-04-03T04:36:21;23.13;;;11.15;;
73814;SDS011;62145;55.648;37.602;2023-04-03T04:38:48;19.60;;;10.48;;
73814;SDS011;62145;55.648;37.602;2023-04-03T04:41:14;26.48;;;11.38;;
73814;SDS011;62145;55.648;37.602;2023-04-03T04:43:41;23.60;;;11.63;;
73814;SDS011;62145;55.648;37.602;2023-04-03T04:46:09;22.63;;;11.35;;
73814;SDS011;62145;55.648;37.602;2023-04-03T04:48:43;26.15;;;11.75;;
73814;SDS011;62145;55.648;37.602;2023-04-03T04:51:10;24.92;;;12.00;;
73814;SDS011;62145;55.648;37.602;2023-04-03T04:53:37;26.40;;;12.00;;
73814;SDS011;62145;55.648;37.602;2023-04-03T04:56:04;26.23;;;11.97;;
73814;SDS011;62145;55.648;37.602;2023-04-03T04:58:31;29.23;;;13.00;;
73814;SDS011;62145;55.648;37.602;2023-04-03T05:01:00;28.30;;;11.75;;
73814;SDS011;62145;55.648;37.602;2023-04-03T05:03:31;28.38;;;12.27;;
73814;SDS011;62145;55.648;37.602;2023-04-03T05:05:57;27.20;;;11.40;;
73814;SDS011;62145;55.648;37.602;2023-04-03T05:08:23;25.43;;;11.83;;
73814;SDS011;62145;55.648;37.602;2023-04-03T05:10:49;19.73;;;10.50;;
73814;SDS011;62145;55.648;37.602;2023-04-03T05:13:16;26.20;;;11.90;;
73814;SDS011;62145;55.648;37.602;2023-04-03T05:15:42;26.07;;;11.97;;
73814;SDS011;62145;55.648;37.602;2023-04-03T05:18:08;22.25;;;11.27;;
73814;SDS011;62145;55.648;37.602;2023-04-03T05:20:34;27.88;;;11.38;;
73814;SDS011;62145;55.648;37.602;2023-04-03T05:23:00;30.58;;;11.82;;
73814;SDS011;62145;55.648;37.602;2023-04-03T05:25:26;23.50;;;11.57;;
73814;SDS011;62145;55.648;37.602;2023-04-03T05:27:52;25.58;;;11.70;;
73814;SDS011;62145;55.648;37.602;2023-04-03T05:30:18;27.42;;;11.95;;
73814;SDS011;62145;55.648;37.602;2023-04-03T05:32:45;28.33;;;12.25;;
73814;SDS011;62145;55.648;37.602;2023-04-03T05:35:18;33.33;;;13.57;;
73814;SDS011;62145;55.648;37.602;2023-04-03T05:37:46;32.87;;;12.10;;
73814;SDS011;62145;55.648;37.602;2023-04-03T05:40:13;29.33;;;12.32;;
73814;SDS011;62145;55.648;37.602;2023-04-03T05:42:43;31.60;;;12.60;;
73814;SDS011;62145;55.648;37.602;2023-04-03T05:45:09;29.02;;;13.45;;
73814;SDS011;62145;55.648;37.602;2023-04-03T05:47:35;29.10;;;12.52;;
73814;SDS011;62145;55.648;37.602;2023-04-03T05:50:02;30.83;;;12.83;;
73814;SDS011;62145;55.648;37.602;2023-04-03T05:52:30;27.58;;;12.40;;
73814;SDS011;62145;55.648;37.602;2023-04-03T05:54:57;27.17;;;12.98;;
73814;SDS011;62145;55.648;37.602;2023-04-03T05:57:26;28.92;;;12.75;;
73814;SDS011;62145;55.648;37.602;2023-04-03T05:59:52;29.15;;;13.32;;
73814;SDS011;62145;55.648;37.602;2023-04-03T06:02:20;23.80;;;11.80;;
73814;SDS011;62145;55.648;37.602;2023-04-03T06:04:47;29.05;;;12.82;;
73814;SDS011;62145;55.648;37.602;2023-04-03T06:07:14;26.70;;;13.23;;
73814;SDS011;62145;55.648;37.602;2023-04-03T06:09:41;24.13;;;11.20;;
73814;SDS011;62145;55.648;37.602;2023-04-03T06:12:08;21.63;;;11.30;;
73814;SDS011;62145;55.648;37.602;2023-04-03T06:14:34;20.70;;;9.90;;
73814;SDS011;62145;55.648;37.602;2023-04-03T06:17:00;22.65;;;10.88;;
73814;SDS011;62145;55.648;37.602;2023-04-03T06:19:27;20.50;;;10.52;;
73814;SDS011;62145;55.648;37.602;2023-04-03T06:21:55;19.77;;;10.48;;
73814;SDS011;62145;55.648;37.602;2023-04-03T06:24:23;19.27;;;10.48;;
73814;SDS011;62145;55.648;37.602;2023-04-03T06:26:51;22.73;;;9.80;;
73814;SDS011;62145;55.648;37.602;2023-04-03T06:29:18;22.45;;;9.85;;
73814;SDS011;62145;55.648;37.602;2023-04-03T06:31:45;23.75;;;10.10;;
73814;SDS011;62145;55.648;37.602;2023-04-03T06:34:11;21.38;;;10.57;;
73814;SDS011;62145;55.648;37.602;2023-04-03T06:36:38;19.83;;;9.75;;
73814;SDS011;62145;55.648;37.602;2023-04-03T06:39:04;21.83;;;10.30;;
73814;SDS011;62145;55.648;37.602;2023-04-03T06:41:30;21.10;;;10.10;;
73814;SDS011;62145;55.648;37.602;2023-04-03T06:43:56;22.20;;;10.20;;
73814;SDS011;62145;55.648;37.602;2023-04-03T06:46:24;21.77;;;10.10;;
73814;SDS011;62145;55.648;37.602;2023-04-03T06:48:51;19.67;;;9.85;;
73814;SDS011;62145;55.648;37.602;2023-04-03T06:51:25;21.63;;;10.02;;
73814;SDS011;62145;55.648;37.602;2023-04-03T06:53:52;16.45;;;9.52;;
73814;SDS011;62145;55.648;37.602;2023-04-03T06:56:20;19.25;;;10.45;;
73814;SDS011;62145;55.648;37.602;2023-04-03T06:58:46;22.27;;;9.95;;
73814;SDS011;62145;55.648;37.602;2023-04-03T07:01:13;19.90;;;10.30;;
73814;SDS011;62145;55.648;37.602;2023-04-03T07:03:40;21.30;;;10.63;;
73814;SDS011;62145;55.648;37.602;2023-04-03T07:06:06;20.77;;;10.55;;
73814;SDS011;62145;55.648;37.602;2023-04-03T07:08:34;20.25;;;9.93;;
73814;SDS011;62145;55.648;37.602;2023-04-03T07:11:00;19.10;;;10.90;;
73814;SDS011;62145;55.648;37.602;2023-04-03T07:13:26;25.38;;;11.00;;
73814;SDS011;62145;55.648;37.602;2023-04-03T07:15:52;19.30;;;10.80;;
73814;SDS011;62145;55.648;37.602;2023-04-03T07:18:18;21.00;;;10.82;;
73814;SDS011;62145;55.648;37.602;2023-04-03T07:20:44;25.83;;;11.60;;
73814;SDS011;62145;55.648;37.602;2023-04-03T07:23:10;22.63;;;11.75;;
73814;SDS011;62145;55.648;37.602;2023-04-03T07:25:37;24.80;;;11.95;;
73814;SDS011;62145;55.648;37.602;2023-04-03T07:28:07;24.08;;;11.30;;
73814;SDS011;62145;55.648;37.602;2023-04-03T07:30:33;21.75;;;12.02;;
73814;SDS011;62145;55.648;37.602;2023-04-03T07:32:59;25.77;;;11.73;;
73814;SDS011;62145;55.648;37.602;2023-04-03T07:35:25;25.08;;;11.50;;
73814;SDS011;62145;55.648;37.602;2023-04-03T07:37:50;24.80;;;11.70;;
73814;SDS011;62145;55.648;37.602;2023-04-03T07:40:16;22.17;;;10.55;;
73814;SDS011;62145;55.648;37.602;2023-04-03T07:42:42;22.53;;;11.63;;
73814;SDS011;62145;55.648;37.602;2023-04-03T07:45:08;21.73;;;11.32;;
73814;SDS011;62145;55.648;37.602;2023-04-03T07:47:34;21.23;;;10.90;;
73814;SDS011;62145;55.648;37.602;2023-04-03T07:50:00;23.67;;;11.00;;
73814;SDS011;62145;55.648;37.602;2023-04-03T07:52:26;27.17;;;12.30;;
73814;SDS011;62145;55.648;37.602;2023-04-03T07:54:51;25.92;;;11.30;;
73814;SDS011;62145;55.648;37.602;2023-04-03T07:57:17;22.70;;;10.10;;
73814;SDS011;62145;55.648;37.602;2023-04-03T07:59:43;26.05;;;11.60;;
73814;SDS011;62145;55.648;37.602;2023-04-03T08:02:09;21.23;;;11.03;;
73814;SDS011;62145;55.648;37.602;2023-04-03T08:04:35;22.17;;;11.85;;
73814;SDS011;62145;55.648;37.602;2023-04-03T08:07:01;22.17;;;11.40;;
73814;SDS011;62145;55.648;37.602;2023-04-03T08:09:27;24.67;;;11.93;;
73814;SDS011;62145;55.648;37.602;2023-04-03T08:11:53;25.38;;;12.20;;
73814;SDS011;62145;55.648;37.602;2023-04-03T08:14:19;24.43;;;11.40;;
73814;SDS011;62145;55.648;37.602;2023-04-03T08:16:46;27.27;;;12.25;;
73814;SDS011;62145;55.648;37.602;2023-04-03T08:19:13;26.55;;;11.48;;
73814;SDS011;62145;55.648;37.602;2023-04-03T08:21:40;23.98;;;12.23;;
73814;SDS011;62145;55.648;37.602;2023-04-03T08:24:10;27.67;;;12.30;;
73814;SDS011;62145;55.648;37.602;2023-04-03T08:26:36;31.70;;;13.10;;
73814;SDS011;62145;55.648;37.602;2023-04-03T08:29:02;27.73;;;12.70;;
73814;SDS011;62145;55.648;37.602;2023-04-03T08:31:27;26.53;;;12.27;;
73814;SDS011;62145;55.648;37.602;2023-04-03T08:33:53;30.98;;;12.98;;
73814;SDS011;62145;55.648;37.602;2023-04-03T08:38:50;27.33;;;13.03;;
73814;SDS011;62145;55.648;37.602;2023-04-03T08:41:20;29.75;;;13.57;;
73814;SDS011;62145;55.648;37.602;2023-04-03T08:46:52;29.02;;;13.50;;
73814;SDS011;62145;55.648;37.602;2023-04-03T08:51:51;27.97;;;13.33;;
73814;SDS011;62145;55.648;37.602;2023-04-03T08:54:25;25.65;;;13.48;;
73814;SDS011;62145;55.648;37.602;2023-04-03T08:56:52;37.28;;;14.23;;
73814;SDS011;62145;55.648;37.602;2023-04-03T08:59:19;25.00;;;12.90;;
73814;SDS011;62145;55.648;37.602;2023-04-03T09:01:51;30.15;;;12.80;;
73814;SDS011;62145;55.648;37.602;2023-04-03T09:04:17;22.25;;;12.30;;
73814;SDS011;62145;55.648;37.602;2023-04-03T09:06:45;22.98;;;12.48;;
73814;SDS011;62145;55.648;37.602;2023-04-03T09:16:56;25.85;;;12.40;;
73814;SDS011;62145;55.648;37.602;2023-04-03T09:22:00;26.27;;;12.80;;
73814;SDS011;62145;55.648;37.602;2023-04-03T09:24:58;31.65;;;12.85;;
73814;SDS011;62145;55.648;37.602;2023-04-03T09:27:37;26.65;;;13.35;;
73814;SDS011;62145;55.648;37.602;2023-04-03T09:30:03;30.40;;;13.90;;
73814;SDS011;62145;55.648;37.602;2023-04-03T09:32:35;28.60;;;12.83;;
73814;SDS011;62145;55.648;37.602;2023-04-03T09:35:03;27.90;;;13.57;;
73814;SDS011;62145;55.648;37.602;2023-04-03T09:37:37;25.13;;;13.50;;
73814;SDS011;62145;55.648;37.602;2023-04-03T09:40:05;29.58;;;13.32;;
73814;SDS011;62145;55.648;37.602;2023-04-03T09:42:54;28.67;;;13.05;;
73814;SDS011;62145;55.648;37.602;2023-04-03T09:45:43;24.63;;;12.33;;
73814;SDS011;62145;55.648;37.602;2023-04-03T09:48:15;28.52;;;13.75;;
73814;SDS011;62145;55.648;37.602;2023-04-03T09:53:26;22.45;;;11.43;;
73814;SDS011;62145;55.648;37.602;2023-04-03T09:55:55;24.50;;;12.23;;
73814;SDS011;62145;55.648;37.602;2023-04-03T09:58:23;29.20;;;13.90;;
73814;SDS011;62145;55.648;37.602;2023-04-03T10:00:59;29.38;;;13.48;;
73814;SDS011;62145;55.648;37.602;2023-04-03T10:03:34;27.27;;;13.30;;
73814;SDS011;62145;55.648;37.602;2023-04-03T10:06:01;30.77;;;14.48;;
73814;SDS011;62145;55.648;37.602;2023-04-03T10:08:30;28.30;;;14.30;;
73814;SDS011;62145;55.648;37.602;2023-04-03T10:13:49;24.77;;;12.40;;
73814;SDS011;62145;55.648;37.602;2023-04-03T10:16:18;26.35;;;12.93;;
73814;SDS011;62145;55.648;37.602;2023-04-03T10:18:57;27.13;;;13.35;;
73814;SDS011;62145;55.648;37.602;2023-04-03T10:23:57;24.57;;;12.90;;
73814;SDS011;62145;55.648;37.602;2023-04-03T10:39:14;25.58;;;12.70;;
73814;SDS011;62145;55.648;37.602;2023-04-03T10:52:48;24.48;;;11.93;;
73814;SDS011;62145;55.648;37.602;2023-04-03T10:55:34;22.85;;;11.23;;
73814;SDS011;62145;55.648;37.602;2023-04-03T10:58:06;22.73;;;11.07;;
73814;SDS011;62145;55.648;37.602;2023-04-03T11:00:45;27.52;;;11.77;;
73814;SDS011;62145;55.648;37.602;2023-04-03T11:03:26;20.60;;;10.85;;
73814;SDS011;62145;55.648;37.602;2023-04-03T11:05:57;26.10;;;11.70;;
73814;SDS011;62145;55.648;37.602;2023-04-03T11:08:32;24.63;;;11.23;;
73814;SDS011;62145;55.648;37.602;2023-04-03T11:11:17;20.40;;;10.87;;
73814;SDS011;62145;55.648;37.602;2023-04-03T11:13:55;22.75;;;11.02;;
73814;SDS011;62145;55.648;37.602;2023-04-03T11:16:31;24.02;;;11.70;;
73814;SDS011;62145;55.648;37.602;2023-04-03T11:19:02;21.67;;;10.82;;
73814;SDS011;62145;55.648;37.602;2023-04-03T11:24:38;21.83;;;10.97;;
73814;SDS011;62145;55.648;37.602;2023-04-03T11:27:08;22.88;;;11.70;;
73814;SDS011;62145;55.648;37.602;2023-04-03T11:29:54;22.83;;;10.83;;
73814;SDS011;62145;55.648;37.602;2023-04-03T11:35:10;24.77;;;11.07;;
73814;SDS011;62145;55.648;37.602;2023-04-03T11:37:44;22.13;;;10.77;;
73814;SDS011;62145;55.648;37.602;2023-04-03T11:42:42;19.80;;;10.40;;
73814;SDS011;62145;55.648;37.602;2023-04-03T11:47:54;18.77;;;9.40;;
73814;SDS011;62145;55.648;37.602;2023-04-03T11:50:32;18.15;;;9.50;;
73814;SDS011;62145;55.648;37.602;2023-04-03T12:13:41;17.35;;;8.10;;
73814;SDS011;62145;55.648;37.602;2023-04-03T12:21:16;16.30;;;8.23;;
73814;SDS011;62145;55.648;37.602;2023-04-03T12:24:23;15.68;;;8.55;;
73814;SDS011;62145;55.648;37.602;2023-04-03T12:38:01;16.58;;;6.97;;
73814;SDS011;62145;55.648;37.602;2023-04-03T12:46:50;14.13;;;6.60;;
73814;SDS011;62145;55.648;37.602;2023-04-03T12:51:45;11.75;;;5.82;;
73814;SDS011;62145;55.648;37.602;2023-04-03T12:54:19;16.20;;;6.60;;
73814;SDS011;62145;55.648;37.602;2023-04-03T12:56:48;15.80;;;6.70;;
73814;SDS011;62145;55.648;37.602;2023-04-03T12:59:19;16.63;;;6.72;;
73814;SDS011;62145;55.648;37.602;2023-04-03T13:01:56;15.05;;;6.90;;
73814;SDS011;62145;55.648;37.602;2023-04-03T13:04:23;14.10;;;6.10;;
73814;SDS011;62145;55.648;37.602;2023-04-03T13:06:49;16.92;;;7.00;;
73814;SDS011;62145;55.648;37.602;2023-04-03T13:09:26;16.13;;;6.85;;
73814;SDS011;62145;55.648;37.602;2023-04-03T13:12:03;13.43;;;6.47;;
73814;SDS011;62145;55.648;37.602;2023-04-03T13:14:36;14.18;;;6.40;;
73814;SDS011;62145;55.648;37.602;2023-04-03T13:19:41;12.57;;;5.80;;
73814;SDS011;62145;55.648;37.602;2023-04-03T13:22:11;14.70;;;6.43;;
73814;SDS011;62145;55.648;37.602;2023-04-03T13:24:42;12.93;;;5.90;;
73814;SDS011;62145;55.648;37.602;2023-04-03T13:27:10;11.40;;;5.23;;
73814;SDS011;62145;55.648;37.602;2023-04-03T13:29:36;14.73;;;6.00;;
73814;SDS011;62145;55.648;37.602;2023-04-03T13:32:03;10.13;;;4.88;;
73814;SDS011;62145;55.648;37.602;2023-04-03T13:34:37;19.00;;;6.13;;
73814;SDS011;62145;55.648;37.602;2023-04-03T13:37:06;11.57;;;5.25;;
73814;SDS011;62145;55.648;37.602;2023-04-03T13:39:34;11.00;;;5.50;;
73814;SDS011;62145;55.648;37.602;2023-04-03T13:42:14;13.02;;;5.32;;
73814;SDS011;62145;55.648;37.602;2023-04-03T13:44:42;12.32;;;5.68;;
73814;SDS011;62145;55.648;37.602;2023-04-03T13:57:47;12.90;;;6.35;;
73814;SDS011;62145;55.648;37.602;2023-04-03T14:00:49;13.82;;;6.28;;
73814;SDS011;62145;55.648;37.602;2023-04-03T14:03:26;13.13;;;6.28;;
73814;SDS011;62145;55.648;37.602;2023-04-03T14:05:59;14.97;;;6.73;;
73814;SDS011;62145;55.648;37.602;2023-04-03T14:08:26;14.55;;;6.20;;
73814;SDS011;62145;55.648;37.602;2023-04-03T14:10:52;13.57;;;6.80;;
73814;SDS011;62145;55.648;37.602;2023-04-03T14:13:20;13.48;;;6.45;;
73814;SDS011;62145;55.648;37.602;2023-04-03T14:15:46;14.98;;;6.68;;
73814;SDS011;62145;55.648;37.602;2023-04-03T14:18:15;12.83;;;7.30;;
73814;SDS011;62145;55.648;37.602;2023-04-03T14:20:42;13.55;;;6.72;;
73814;SDS011;62145;55.648;37.602;2023-04-03T14:23:12;15.60;;;7.13;;
73814;SDS011;62145;55.648;37.602;2023-04-03T14:25:39;13.18;;;6.97;;
73814;SDS011;62145;55.648;37.602;2023-04-03T14:28:16;14.88;;;7.00;;
73814;SDS011;62145;55.648;37.602;2023-04-03T14:30:44;18.27;;;7.47;;
73814;SDS011;62145;55.648;37.602;2023-04-03T14:33:15;12.93;;;6.50;;
73814;SDS011;62145;55.648;37.602;2023-04-03T14:35:43;15.73;;;6.53;;
73814;SDS011;62145;55.648;37.602;2023-04-03T14:38:28;15.77;;;6.70;;
73814;SDS011;62145;55.648;37.602;2023-04-03T14:40:55;13.23;;;6.57;;
73814;SDS011;62145;55.648;37.602;2023-04-03T14:43:23;14.50;;;7.03;;
73814;SDS011;62145;55.648;37.602;2023-04-03T14:45:49;12.82;;;6.68;;
73814;SDS011;62145;55.648;37.602;2023-04-03T14:48:23;14.38;;;6.82;;
73814;SDS011;62145;55.648;37.602;2023-04-03T14:50:51;12.85;;;6.70;;
73814;SDS011;62145;55.648;37.602;2023-04-03T14:53:17;14.48;;;6.72;;
73814;SDS011;62145;55.648;37.602;2023-04-03T14:55:48;16.23;;;6.80;;
73814;SDS011;62145;55.648;37.602;2023-04-03T14:58:15;16.75;;;6.82;;
73814;SDS011;62145;55.648;37.602;2023-04-03T15:00:43;15.18;;;6.38;;
73814;SDS011;62145;55.648;37.602;2023-04-03T15:03:16;15.20;;;6.90;;
73814;SDS011;62145;55.648;37.602;2023-04-03T15:05:45;13.85;;;6.85;;
73814;SDS011;62145;55.648;37.602;2023-04-03T15:08:22;17.30;;;7.57;;
73814;SDS011;62145;55.648;37.602;2023-04-03T15:10:49;16.88;;;7.72;;
73814;SDS011;62145;55.648;37.602;2023-04-03T15:13:17;18.45;;;8.00;;
73814;SDS011;62145;55.648;37.602;2023-04-03T15:15:44;16.58;;;8.35;;
73814;SDS011;62145;55.648;37.602;2023-04-03T15:18:11;20.13;;;8.75;;
73814;SDS011;62145;55.648;37.602;2023-04-03T15:20:41;19.00;;;8.10;;
73814;SDS011;62145;55.648;37.602;2023-04-03T15:23:08;16.17;;;7.75;;
73814;SDS011;62145;55.648;37.602;2023-04-03T15:25:35;16.13;;;7.70;;
73814;SDS011;62145;55.648;37.602;2023-04-03T15:28:01;16.60;;;8.10;;
73814;SDS011;62145;55.648;37.602;2023-04-03T15:30:27;15.57;;;7.07;;
73814;SDS011;62145;55.648;37.602;2023-04-03T15:32:53;14.77;;;7.60;;
73814;SDS011;62145;55.648;37.602;2023-04-03T15:35:19;16.10;;;7.67;;
73814;SDS011;62145;55.648;37.602;2023-04-03T15:37:45;15.23;;;7.50;;
73814;SDS011;62145;55.648;37.602;2023-04-03T15:40:11;15.82;;;8.30;;
73814;SDS011;62145;55.648;37.602;2023-04-03T15:42:37;13.95;;;7.53;;
73814;SDS011;62145;55.648;37.602;2023-04-03T15:45:03;14.97;;;7.37;;
73814;SDS011;62145;55.648;37.602;2023-04-03T15:47:29;17.70;;;7.28;;
73814;SDS011;62145;55.648;37.602;2023-04-03T15:49:55;14.57;;;7.25;;
73814;SDS011;62145;55.648;37.602;2023-04-03T15:52:21;14.55;;;7.05;;
73814;SDS011;62145;55.648;37.602;2023-04-03T15:54:47;13.95;;;7.57;;
73814;SDS011;62145;55.648;37.602;2023-04-03T15:57:13;13.70;;;6.83;;
73814;SDS011;62145;55.648;37.602;2023-04-03T15:59:39;13.43;;;6.68;;
73814;SDS011;62145;55.648;37.602;2023-04-03T16:02:06;12.50;;;6.45;;
73814;SDS011;62145;55.648;37.602;2023-04-03T16:04:33;14.07;;;6.93;;
73814;SDS011;62145;55.648;37.602;2023-04-03T16:07:03;14.52;;;7.10;;
73814;SDS011;62145;55.648;37.602;2023-04-03T16:09:29;15.82;;;7.70;;
73814;SDS011;62145;55.648;37.602;2023-04-03T16:11:55;15.43;;;7.47;;
73814;SDS011;62145;55.648;37.602;2023-04-03T16:14:21;15.43;;;7.37;;
73814;SDS011;62145;55.648;37.602;2023-04-03T16:16:47;16.38;;;7.40;;
73814;SDS011;62145;55.648;37.602;2023-04-03T16:19:13;16.77;;;7.80;;
73814;SDS011;62145;55.648;37.602;2023-04-03T16:21:38;18.35;;;7.78;;
73814;SDS011;62145;55.648;37.602;2023-04-03T16:24:04;14.93;;;7.13;;
73814;SDS011;62145;55.648;37.602;2023-04-03T16:26:31;18.60;;;8.10;;
73814;SDS011;62145;55.648;37.602;2023-04-03T16:28:57;14.63;;;7.80;;
73814;SDS011;62145;55.648;37.602;2023-04-03T16:31:23;16.13;;;7.53;;
73814;SDS011;62145;55.648;37.602;2023-04-03T16:33:49;13.38;;;5.82;;
73814;SDS011;62145;55.648;37.602;2023-04-03T16:36:15;13.53;;;6.87;;